Time;durP1;ratioP1;P1;durP2;ratioP2;P2;SDS_P1;SDS_P2;PMS_P1;PMS_P2;Temp;Humidity;BMP_temperature;BMP_pressure;BME280_temperature;BME280_humidity;BME280_pressure;Samples;Min_cycle;Max_cycle;Signal;HPM_P1;HPM_P2
2021/01/10 00:01:03;;;;;;;7.70;5.28;;;-2.70;99.90;;;;;;1945837;73;21156;-68
2021/01/10 00:03:29;;;;;;;10.05;6.08;;;-2.70;99.90;;;;;;1949001;73;21070;-69
2021/01/10 00:05:56;;;;;;;11.18;5.35;;;-2.80;99.90;;;;;;1944523;73;21144;-70
2021/01/10 00:08:22;;;;;;;8.50;4.75;;;-2.70;99.90;;;;;;1951139;73;21187;-69
2021/01/10 00:10:49;;;;;;;10.28;4.80;;;-2.80;99.90;;;;;;1952942;72;21560;-69
2021/01/10 00:13:15;;;;;;;10.48;4.72;;;-2.90;99.90;;;;;;1942773;73;21144;-70
2021/01/10 00:15:41;;;;;;;7.65;4.60;;;-3.10;99.90;;;;;;1944310;73;21183;-70
2021/01/10 00:18:08;;;;;;;9.25;5.30;;;-3.20;99.90;;;;;;1942597;73;21091;-69
2021/01/10 00:20:35;;;;;;;11.33;5.03;;;-3.10;99.90;;;;;;1948637;73;21416;-70
2021/01/10 00:23:01;;;;;;;8.75;4.95;;;-3.10;99.90;;;;;;1947733;73;21106;-70
2021/01/10 00:25:27;;;;;;;11.78;5.12;;;-3.30;99.90;;;;;;1942560;73;21140;-70
2021/01/10 00:27:54;;;;;;;6.97;4.45;;;-3.30;99.90;;;;;;1946225;73;21136;-70
2021/01/10 00:30:20;;;;;;;10.70;6.00;;;-3.20;99.90;;;;;;1952103;73;21097;-71
2021/01/10 00:32:46;;;;;;;10.45;5.80;;;-3.20;99.90;;;;;;1944223;73;21039;-70
2021/01/10 00:35:12;;;;;;;8.95;4.90;;;-3.10;99.90;;;;;;1942792;74;21133;-70
2021/01/10 00:37:38;;;;;;;7.95;4.80;;;-2.90;99.90;;;;;;1948245;73;21251;-70
2021/01/10 00:40:04;;;;;;;11.90;5.28;;;-2.80;99.90;;;;;;1948823;73;21054;-70
2021/01/10 00:42:30;;;;;;;13.60;5.35;;;-2.80;99.90;;;;;;1947491;73;21059;-70
2021/01/10 00:44:57;;;;;;;7.97;4.70;;;-2.70;99.90;;;;;;1947713;73;21044;-70
2021/01/10 00:47:23;;;;;;;8.63;5.17;;;-2.60;99.90;;;;;;1943066;73;21128;-69
2021/01/10 00:49:49;;;;;;;10.23;5.22;;;-2.60;99.90;;;;;;1946046;73;21152;-70
2021/01/10 00:52:15;;;;;;;10.90;4.72;;;-2.50;99.90;;;;;;1949140;73;21463;-70
2021/01/10 00:54:41;;;;;;;7.08;4.65;;;-2.40;99.90;;;;;;1951374;72;21554;-71
2021/01/10 00:57:07;;;;;;;12.07;4.85;;;-2.50;99.90;;;;;;1948682;72;21443;-70
2021/01/10 00:59:33;;;;;;;10.90;5.03;;;-2.40;99.90;;;;;;1949225;73;21553;-69
2021/01/10 01:01:59;;;;;;;11.83;5.87;;;-2.30;99.90;;;;;;1948670;73;21055;-69
2021/01/10 01:04:26;;;;;;;8.18;4.83;;;-2.30;99.90;;;;;;1951311;73;21059;-70
2021/01/10 01:06:52;;;;;;;9.08;4.58;;;-2.20;99.90;;;;;;1942760;74;21094;-70
2021/01/10 01:09:18;;;;;;;7.22;4.78;;;-2.30;99.90;;;;;;1949576;73;21053;-69
2021/01/10 01:11:44;;;;;;;7.92;5.42;;;-2.30;99.90;;;;;;1948999;73;21066;-69
2021/01/10 01:14:10;;;;;;;11.50;5.62;;;-2.30;99.90;;;;;;1952795;73;21162;-70
2021/01/10 01:16:36;;;;;;;7.97;4.50;;;-2.30;99.90;;;;;;1949071;73;21152;-70
2021/01/10 01:19:02;;;;;;;9.65;4.85;;;-2.30;99.90;;;;;;1952797;73;21036;-69
2021/01/10 01:21:28;;;;;;;6.78;4.60;;;-2.40;99.90;;;;;;1950900;73;21144;-70
2021/01/10 01:23:55;;;;;;;12.20;4.97;;;-2.40;99.90;;;;;;1947355;73;21079;-69
2021/01/10 01:26:21;;;;;;;7.28;4.53;;;-2.40;99.90;;;;;;1951072;72;21172;-70
2021/01/10 01:28:47;;;;;;;9.20;4.95;;;-2.60;99.90;;;;;;1952945;73;21434;-69
2021/01/10 01:31:13;;;;;;;7.90;5.00;;;-2.80;99.90;;;;;;1949262;73;21502;-70
2021/01/10 01:33:39;;;;;;;10.32;4.92;;;-2.80;99.90;;;;;;1949165;73;21526;-69
2021/01/10 01:36:05;;;;;;;19.90;5.37;;;-2.80;99.90;;;;;;1942612;73;21463;-70
2021/01/10 01:38:31;;;;;;;18.23;4.83;;;-2.80;99.90;;;;;;1946186;73;21058;-70
2021/01/10 01:40:57;;;;;;;7.30;4.47;;;-2.90;99.90;;;;;;1950817;73;21062;-69
2021/01/10 01:43:23;;;;;;;8.13;4.80;;;-2.90;99.90;;;;;;1948997;73;21136;-70
2021/01/10 01:45:50;;;;;;;8.20;5.00;;;-3.00;99.90;;;;;;1946210;73;21125;-70
2021/01/10 01:48:16;;;;;;;7.45;4.40;;;-3.00;99.90;;;;;;1952620;73;21124;-69
2021/01/10 01:50:42;;;;;;;9.48;4.45;;;-3.10;99.90;;;;;;1951657;73;21082;-69
2021/01/10 01:53:08;;;;;;;11.10;4.58;;;-3.10;99.90;;;;;;1942684;73;21055;-69
2021/01/10 01:55:36;;;;;;;5.50;3.85;;;-3.10;99.90;;;;;;1942687;73;21059;-69
2021/01/10 01:58:02;;;;;;;8.50;4.40;;;-3.20;99.90;;;;;;1942866;73;21134;-69
2021/01/10 02:00:28;;;;;;;6.20;4.15;;;-3.20;99.90;;;;;;1944206;73;21066;-69
2021/01/10 02:02:54;;;;;;;8.90;4.50;;;-3.20;99.90;;;;;;1950698;72;21024;-69
2021/01/10 02:05:20;;;;;;;13.80;5.75;;;-3.30;99.90;;;;;;1943760;73;21063;-70
2021/01/10 02:07:51;;;;;;;11.25;5.17;;;-3.20;99.90;;;;;;1945742;73;21060;-70
2021/01/10 02:10:14;;;;;;;7.92;4.10;;;-3.20;99.90;;;;;;1947246;73;21561;-69
2021/01/10 02:12:40;;;;;;;8.38;3.95;;;-3.20;99.90;;;;;;1945905;73;21035;-69
2021/01/10 02:15:06;;;;;;;7.05;4.15;;;-3.10;99.90;;;;;;1942649;73;21136;-70
2021/01/10 02:17:33;;;;;;;8.25;5.00;;;-3.10;99.90;;;;;;1942600;73;21067;-70
2021/01/10 02:19:59;;;;;;;12.55;4.80;;;-3.20;99.90;;;;;;1943916;73;21152;-69
2021/01/10 02:22:25;;;;;;;8.95;5.05;;;-3.10;99.90;;;;;;1949273;73;21032;-70
2021/01/10 02:24:51;;;;;;;8.45;4.58;;;-3.20;99.90;;;;;;1949061;73;21062;-69
2021/01/10 02:27:17;;;;;;;9.78;5.12;;;-3.20;99.90;;;;;;1953003;73;21055;-70
2021/01/10 02:29:43;;;;;;;7.50;4.58;;;-3.30;99.90;;;;;;1953016;73;21051;-70
2021/01/10 02:32:09;;;;;;;7.05;3.77;;;-3.20;99.90;;;;;;1951115;73;21059;-69
2021/01/10 02:34:35;;;;;;;9.35;3.95;;;-3.30;99.90;;;;;;1947959;73;21048;-69
2021/01/10 02:37:02;;;;;;;9.38;4.22;;;-3.30;99.90;;;;;;1950841;73;21125;-69
2021/01/10 02:39:28;;;;;;;12.30;4.30;;;-3.30;99.90;;;;;;1950918;73;21160;-69
2021/01/10 02:41:54;;;;;;;6.87;4.20;;;-3.40;99.90;;;;;;1948593;73;21074;-70
2021/01/10 02:44:20;;;;;;;6.97;4.25;;;-3.50;99.90;;;;;;1950121;73;21075;-69
2021/01/10 02:46:46;;;;;;;13.58;4.45;;;-3.60;99.90;;;;;;1946379;73;21063;-70
2021/01/10 02:49:12;;;;;;;6.87;4.15;;;-3.60;99.90;;;;;;1942665;73;21079;-69
2021/01/10 02:51:38;;;;;;;8.08;4.05;;;-3.70;99.90;;;;;;1944424;73;21483;-70
2021/01/10 02:54:04;;;;;;;9.03;4.92;;;-3.80;99.90;;;;;;1942492;73;21464;-70
2021/01/10 02:56:30;;;;;;;8.70;4.33;;;-3.70;99.90;;;;;;1949945;72;21440;-70
2021/01/10 02:58:57;;;;;;;9.58;4.60;;;-3.70;99.90;;;;;;1949628;73;21564;-69
2021/01/10 03:01:23;;;;;;;10.95;5.30;;;-3.70;99.90;;;;;;1946975;73;21133;-70
2021/01/10 03:03:49;;;;;;;9.25;4.75;;;-3.70;99.90;;;;;;1945882;73;21070;-69
2021/01/10 03:06:15;;;;;;;8.78;4.75;;;-3.60;99.90;;;;;;1946655;73;21036;-69
2021/01/10 03:08:41;;;;;;;7.75;4.72;;;-3.70;99.90;;;;;;1944429;73;21055;-70
2021/01/10 03:11:07;;;;;;;10.55;5.37;;;-3.70;99.90;;;;;;1948877;73;21066;-68
2021/01/10 03:13:33;;;;;;;6.10;4.67;;;-3.60;99.90;;;;;;1947535;72;21186;-69
2021/01/10 03:15:59;;;;;;;10.72;5.53;;;-3.60;99.90;;;;;;1949616;73;21173;-69
2021/01/10 03:18:26;;;;;;;8.03;5.10;;;-3.50;99.90;;;;;;1948483;72;21031;-69
2021/01/10 03:20:52;;;;;;;6.33;4.15;;;-3.50;99.90;;;;;;1951272;72;21128;-69
2021/01/10 03:23:18;;;;;;;9.05;4.85;;;-3.50;99.90;;;;;;1944175;73;21206;-69
2021/01/10 03:25:44;;;;;;;8.53;4.20;;;-3.60;99.90;;;;;;1950129;73;21055;-68
2021/01/10 03:28:10;;;;;;;6.62;3.98;;;-3.50;99.90;;;;;;1946416;73;21036;-69
2021/01/10 03:30:36;;;;;;;8.90;4.40;;;-3.50;99.90;;;;;;1950040;73;21137;-69
2021/01/10 03:33:02;;;;;;;7.97;4.42;;;-3.50;99.90;;;;;;1953140;73;21187;-69
2021/01/10 03:35:28;;;;;;;9.20;4.85;;;-3.30;99.90;;;;;;1944166;73;21059;-69
2021/01/10 03:37:54;;;;;;;8.60;4.58;;;-3.30;99.90;;;;;;1952932;73;21132;-69
2021/01/10 03:40:21;;;;;;;12.95;4.78;;;-3.30;99.90;;;;;;1952921;73;21423;-69
2021/01/10 03:42:47;;;;;;;6.70;3.90;;;-3.20;99.90;;;;;;1947044;73;21491;-69
2021/01/10 03:45:13;;;;;;;10.65;4.72;;;-3.20;99.90;;;;;;1948993;73;21534;-69
2021/01/10 03:47:49;;;;;;;13.85;6.28;;;-3.10;99.90;;;;;;1944971;73;21487;-69
2021/01/10 03:50:15;;;;;;;9.30;4.55;;;-3.10;99.90;;;;;;1946663;73;21062;-68
2021/01/10 03:52:41;;;;;;;12.68;5.58;;;-3.00;99.90;;;;;;1951757;73;21051;-70
2021/01/10 03:55:08;;;;;;;13.78;5.85;;;-3.00;99.90;;;;;;1942679;73;21039;-68
2021/01/10 03:57:34;;;;;;;8.53;5.22;;;-2.90;99.90;;;;;;1942562;73;21040;-70
2021/01/10 04:00:00;;;;;;;8.83;5.08;;;-2.90;99.90;;;;;;1951450;73;21140;-69
2021/01/10 04:02:26;;;;;;;12.60;6.15;;;-2.90;99.90;;;;;;1945462;73;21129;-69
2021/01/10 04:04:52;;;;;;;9.03;5.15;;;-2.80;99.90;;;;;;1952772;73;21073;-69
2021/01/10 04:07:18;;;;;;;9.70;5.65;;;-2.70;99.90;;;;;;1951192;73;21148;-69
2021/01/10 04:09:45;;;;;;;15.53;5.28;;;-2.70;99.90;;;;;;1946764;73;21063;-69
2021/01/10 04:12:11;;;;;;;8.98;5.33;;;-2.70;99.90;;;;;;1949594;73;21112;-68
2021/01/10 04:14:37;;;;;;;9.98;5.97;;;-2.70;99.90;;;;;;1949061;73;21063;-68
2021/01/10 04:17:03;;;;;;;15.30;4.92;;;-2.70;99.90;;;;;;1950749;73;21193;-67
2021/01/10 04:19:29;;;;;;;13.35;6.05;;;-2.80;99.90;;;;;;1952815;73;21136;-68
2021/01/10 04:21:55;;;;;;;11.65;5.53;;;-2.70;99.90;;;;;;1947195;73;21067;-69
2021/01/10 04:24:21;;;;;;;11.05;4.78;;;-2.60;99.90;;;;;;1952759;73;21128;-69
2021/01/10 04:26:47;;;;;;;10.32;5.30;;;-2.50;99.90;;;;;;1946147;73;21067;-69
2021/01/10 04:29:15;;;;;;;10.08;5.20;;;-2.40;99.90;;;;;;1942750;73;21059;-68
2021/01/10 04:31:41;;;;;;;9.43;5.58;;;-2.40;99.90;;;;;;1951647;73;21117;-69
2021/01/10 04:34:07;;;;;;;12.00;5.22;;;-2.40;99.90;;;;;;1952313;73;21040;-68
2021/01/10 04:36:33;;;;;;;8.45;5.20;;;-2.40;99.90;;;;;;1946018;73;21144;-68
2021/01/10 04:39:00;;;;;;;11.03;5.62;;;-2.30;99.90;;;;;;1946772;73;21035;-68
2021/01/10 04:41:26;;;;;;;10.72;5.75;;;-2.30;99.90;;;;;;1949672;73;21156;-69
2021/01/10 04:43:52;;;;;;;10.23;6.28;;;-2.40;99.90;;;;;;1942744;74;21116;-69
2021/01/10 04:46:18;;;;;;;6.62;4.62;;;-2.30;99.90;;;;;;1943645;73;21575;-68
2021/01/10 04:48:44;;;;;;;8.95;4.90;;;-2.20;99.90;;;;;;1950498;73;21436;-69
2021/01/10 04:51:10;;;;;;;12.70;6.12;;;-2.10;99.90;;;;;;1944281;73;21560;-69
2021/01/10 04:53:36;;;;;;;13.45;5.70;;;-2.20;99.90;;;;;;1948935;73;21553;-69
2021/01/10 04:56:02;;;;;;;11.10;5.55;;;-2.20;99.90;;;;;;1949178;72;21055;-69
2021/01/10 04:58:29;;;;;;;10.93;5.67;;;-2.20;99.90;;;;;;1950792;73;21031;-68
2021/01/10 05:00:55;;;;;;;17.62;6.17;;;-2.10;99.90;;;;;;1953136;73;21039;-71
2021/01/10 05:03:21;;;;;;;14.07;5.72;;;-2.10;99.90;;;;;;1953522;73;21054;-71
2021/01/10 05:05:47;;;;;;;11.63;6.10;;;-2.10;99.90;;;;;;1948149;73;21136;-69
2021/01/10 05:08:13;;;;;;;11.85;6.08;;;-2.00;99.90;;;;;;1948572;73;21114;-69
2021/01/10 05:10:39;;;;;;;12.25;5.70;;;-2.10;99.90;;;;;;1949160;73;21039;-69
2021/01/10 05:13:05;;;;;;;9.88;5.00;;;-1.90;99.90;;;;;;1952304;73;21102;-69
2021/01/10 05:15:32;;;;;;;10.85;5.67;;;-1.80;99.90;;;;;;1943232;73;21140;-71
2021/01/10 05:17:58;;;;;;;12.73;6.25;;;-1.90;99.90;;;;;;1952046;73;21054;-69
2021/01/10 05:20:24;;;;;;;8.95;6.10;;;-1.90;99.90;;;;;;1953585;73;21019;-69
2021/01/10 05:22:50;;;;;;;14.53;6.28;;;-1.90;99.90;;;;;;1953379;72;21467;-71
2021/01/10 05:25:16;;;;;;;12.28;5.35;;;-1.90;99.90;;;;;;1951794;73;21071;-71
2021/01/10 05:27:42;;;;;;;24.80;5.85;;;-1.90;99.90;;;;;;1945021;73;21374;-69
2021/01/10 05:30:09;;;;;;;8.97;5.23;;;-1.80;99.90;;;;;;1950503;72;21206;-69
2021/01/10 05:32:35;;;;;;;9.93;5.95;;;-1.90;99.90;;;;;;1949992;73;21063;-70
2021/01/10 05:35:01;;;;;;;11.68;6.40;;;-1.80;99.90;;;;;;1947442;73;21044;-69
2021/01/10 05:37:29;;;;;;;13.28;6.53;;;-1.80;99.90;;;;;;1951657;73;21040;-68
2021/01/10 05:39:55;;;;;;;11.18;6.45;;;-1.80;99.90;;;;;;1945126;73;21542;-69
2021/01/10 05:42:21;;;;;;;25.52;6.60;;;-1.80;99.90;;;;;;1948753;73;21487;-69
2021/01/10 05:44:47;;;;;;;9.48;5.08;;;-1.70;99.90;;;;;;1945489;73;21580;-69
2021/01/10 05:47:13;;;;;;;11.12;5.90;;;-1.70;99.90;;;;;;1953527;73;21482;-69
2021/01/10 05:49:39;;;;;;;15.28;6.05;;;-1.80;99.90;;;;;;1951393;73;21521;-69
2021/01/10 05:52:05;;;;;;;10.10;6.47;;;-1.70;99.90;;;;;;1949677;73;21059;-69
2021/01/10 05:54:32;;;;;;;9.48;5.78;;;-1.70;99.90;;;;;;1953294;73;21084;-69
2021/01/10 05:56:58;;;;;;;13.68;6.60;;;-1.60;99.90;;;;;;1953534;73;21039;-69
2021/01/10 05:59:24;;;;;;;16.42;5.62;;;-1.60;99.90;;;;;;1947493;73;21063;-69
2021/01/10 06:01:50;;;;;;;10.25;6.05;;;-1.50;99.90;;;;;;1943169;73;21141;-69
2021/01/10 06:04:16;;;;;;;12.30;7.28;;;-1.50;99.90;;;;;;1950995;73;21121;-69
2021/01/10 06:06:42;;;;;;;11.73;5.97;;;-1.60;99.90;;;;;;1953447;73;21019;-69
2021/01/10 06:09:08;;;;;;;9.98;6.33;;;-1.60;99.90;;;;;;1951679;73;21066;-69
2021/01/10 06:11:34;;;;;;;14.50;5.78;;;-1.60;99.90;;;;;;1952598;73;21120;-69
2021/01/10 06:14:01;;;;;;;14.63;6.20;;;-1.60;99.90;;;;;;1945004;73;21137;-70
2021/01/10 06:16:27;;;;;;;9.90;5.92;;;-1.60;99.90;;;;;;1952353;73;21028;-69
2021/01/10 06:18:53;;;;;;;11.48;5.70;;;-1.60;99.90;;;;;;1951787;73;21144;-69
2021/01/10 06:21:19;;;;;;;9.25;5.47;;;-1.60;99.90;;;;;;1949874;73;21070;-69
2021/01/10 06:23:45;;;;;;;9.23;5.65;;;-1.60;99.90;;;;;;1951804;73;21523;-69
2021/01/10 06:26:11;;;;;;;7.83;5.53;;;-1.60;99.90;;;;;;1951600;73;21059;-69
2021/01/10 06:28:37;;;;;;;8.18;5.67;;;-1.60;99.90;;;;;;1946853;73;21132;-69
2021/01/10 06:31:03;;;;;;;7.22;5.03;;;-1.50;99.90;;;;;;1950946;73;21087;-69
2021/01/10 06:33:30;;;;;;;9.13;5.70;;;-1.50;99.90;;;;;;1953612;73;21100;-68
2021/01/10 06:35:56;;;;;;;11.05;5.85;;;-1.50;99.90;;;;;;1953541;73;21079;-69
2021/01/10 06:38:22;;;;;;;9.70;5.45;;;-1.50;99.90;;;;;;1953562;73;21082;-69
2021/01/10 06:40:49;;;;;;;10.28;6.15;;;-1.40;99.90;;;;;;1946218;73;21144;-69
2021/01/10 06:43:15;;;;;;;12.68;5.72;;;-1.40;99.90;;;;;;1953496;73;21011;-69
2021/01/10 06:45:41;;;;;;;10.43;5.50;;;-1.50;99.90;;;;;;1953638;73;21065;-69
2021/01/10 06:48:07;;;;;;;15.58;6.87;;;-1.40;99.90;;;;;;1949690;73;21075;-70
2021/01/10 06:50:33;;;;;;;14.93;7.00;;;-1.40;99.90;;;;;;1953540;73;21066;-69
2021/01/10 06:52:59;;;;;;;11.63;5.85;;;-1.50;99.90;;;;;;1946670;73;21063;-69
2021/01/10 06:55:25;;;;;;;20.60;5.83;;;-1.40;99.90;;;;;;1943388;73;21062;-69
2021/01/10 06:57:52;;;;;;;11.88;4.97;;;-1.40;99.90;;;;;;1948432;73;21050;-71
2021/01/10 07:00:18;;;;;;;9.95;5.10;;;-1.40;99.90;;;;;;1953048;73;21128;-70
2021/01/10 07:02:44;;;;;;;8.48;4.75;;;-1.40;99.90;;;;;;1943410;73;21184;-69
2021/01/10 07:05:10;;;;;;;12.47;5.60;;;-1.40;99.90;;;;;;1947486;73;21058;-69
2021/01/10 07:07:36;;;;;;;13.93;6.08;;;-1.40;99.90;;;;;;1946430;73;21066;-70
2021/01/10 07:10:02;;;;;;;9.15;5.35;;;-1.40;99.90;;;;;;1949538;73;21066;-69
2021/01/10 07:12:28;;;;;;;8.60;5.17;;;-1.40;99.90;;;;;;1953716;73;21050;-69
2021/01/10 07:14:55;;;;;;;13.93;5.30;;;-1.40;99.90;;;;;;1945788;73;21129;-71
2021/01/10 07:17:21;;;;;;;11.85;6.10;;;-1.30;99.90;;;;;;1949988;73;21040;-69
2021/01/10 07:19:47;;;;;;;9.93;5.42;;;-1.40;99.90;;;;;;1951532;73;21051;-70
2021/01/10 07:22:13;;;;;;;8.18;5.37;;;-1.30;99.90;;;;;;1953464;73;21054;-71
2021/01/10 07:24:39;;;;;;;9.83;5.28;;;-1.30;99.90;;;;;;1951664;73;21136;-71
2021/01/10 07:27:06;;;;;;;9.23;5.35;;;-1.30;99.90;;;;;;1949950;73;21043;-70
2021/01/10 07:29:32;;;;;;;11.33;5.20;;;-1.20;99.90;;;;;;1953556;72;21444;-69
2021/01/10 07:31:58;;;;;;;11.78;5.75;;;-1.30;99.90;;;;;;1949857;72;21576;-70
2021/01/10 07:34:24;;;;;;;9.15;5.33;;;-1.30;99.90;;;;;;1946614;73;21588;-72
2021/01/10 07:36:51;;;;;;;9.60;5.25;;;-1.30;99.90;;;;;;1943323;73;21052;-76
2021/01/10 07:39:17;;;;;;;10.25;5.50;;;-1.40;99.90;;;;;;1950253;72;21044;-72
2021/01/10 07:41:43;;;;;;;12.05;5.50;;;-1.30;99.90;;;;;;1949533;73;21062;-72
2021/01/10 07:44:09;;;;;;;11.48;6.22;;;-1.20;99.90;;;;;;1953508;73;21031;-72
2021/01/10 07:46:35;;;;;;;13.25;6.05;;;-1.30;99.90;;;;;;1949802;73;21144;-72
2021/01/10 07:49:01;;;;;;;10.60;6.15;;;-1.30;99.90;;;;;;1953593;73;21123;-72
2021/01/10 07:51:27;;;;;;;12.73;6.47;;;-1.20;99.90;;;;;;1948021;73;21051;-72
2021/01/10 07:53:54;;;;;;;11.00;6.97;;;-1.20;99.90;;;;;;1950038;73;21141;-72
2021/01/10 07:56:20;;;;;;;8.70;5.87;;;-1.20;99.90;;;;;;1943256;73;21556;-71
2021/01/10 07:58:46;;;;;;;11.50;6.72;;;-1.40;99.90;;;;;;1950904;73;21608;-72
2021/01/10 08:01:12;;;;;;;13.68;6.65;;;-1.40;99.90;;;;;;1953368;73;21491;-72
2021/01/10 08:03:38;;;;;;;10.75;6.17;;;-1.30;99.90;;;;;;1951924;73;21578;-72
2021/01/10 08:06:05;;;;;;;9.85;6.17;;;-1.30;99.90;;;;;;1944861;73;21509;-72
2021/01/10 08:08:31;;;;;;;11.83;5.95;;;-1.10;99.90;;;;;;1945806;72;21435;-72
2021/01/10 08:10:57;;;;;;;10.05;5.42;;;-1.10;99.90;;;;;;1950012;73;21133;-71
2021/01/10 08:13:23;;;;;;;11.45;5.97;;;-1.20;99.90;;;;;;1953459;72;21141;-72
2021/01/10 08:15:49;;;;;;;11.00;6.50;;;-1.30;99.90;;;;;;1944086;73;21062;-71
2021/01/10 08:18:15;;;;;;;10.82;6.30;;;-1.20;99.90;;;;;;1945014;73;21048;-71
2021/01/10 08:20:41;;;;;;;15.30;6.45;;;-1.10;99.90;;;;;;1943227;73;21055;-72
2021/01/10 08:23:07;;;;;;;12.55;6.17;;;-1.10;99.90;;;;;;1952104;73;21101;-72
2021/01/10 08:25:34;;;;;;;15.40;7.05;;;-1.00;99.90;;;;;;1951001;73;21071;-72
2021/01/10 08:28:00;;;;;;;17.65;7.58;;;-0.90;99.90;;;;;;1943260;73;21032;-72
2021/01/10 08:30:26;;;;;;;14.07;6.58;;;-0.80;99.90;;;;;;1949468;73;21070;-72
2021/01/10 08:32:52;;;;;;;10.90;6.05;;;-0.70;99.90;;;;;;1953617;73;21054;-72
2021/01/10 08:35:18;;;;;;;9.00;5.97;;;-0.80;99.90;;;;;;1949846;73;21125;-73
2021/01/10 08:37:44;;;;;;;14.15;6.78;;;-0.80;99.90;;;;;;1952009;72;21087;-74
2021/01/10 08:40:10;;;;;;;9.93;6.25;;;-0.70;99.90;;;;;;1945677;73;21059;-72
2021/01/10 08:42:36;;;;;;;12.35;6.40;;;-0.70;99.90;;;;;;1946328;73;21067;-70
2021/01/10 08:45:03;;;;;;;19.73;6.60;;;-0.60;99.90;;;;;;1943275;74;21230;-71
2021/01/10 08:47:29;;;;;;;16.27;7.10;;;-0.60;99.90;;;;;;1943252;73;21036;-70
2021/01/10 08:49:55;;;;;;;15.65;6.22;;;-0.50;99.90;;;;;;1949109;73;21140;-70
2021/01/10 08:52:21;;;;;;;19.48;6.60;;;-0.30;99.90;;;;;;1953497;73;21066;-73
2021/01/10 08:54:47;;;;;;;16.02;6.80;;;-0.10;99.90;;;;;;1949809;73;21464;-75
2021/01/10 08:57:13;;;;;;;13.00;6.53;;;-0.10;99.90;;;;;;1948068;73;21416;-76
2021/01/10 08:59:40;;;;;;;13.78;7.62;;;-0.20;99.90;;;;;;1949730;73;21447;-76
2021/01/10 09:02:06;;;;;;;14.25;7.30;;;-0.10;99.90;;;;;;1949660;73;21078;-76
2021/01/10 09:04:32;;;;;;;15.28;7.08;;;-0.10;99.90;;;;;;1946627;73;21074;-76
2021/01/10 09:07:00;;;;;;;19.17;6.58;;;-0.20;99.90;;;;;;1953464;73;21071;-73
2021/01/10 09:09:26;;;;;;;10.60;6.28;;;-0.10;99.90;;;;;;1953446;73;21514;-73
2021/01/10 09:11:52;;;;;;;12.53;6.10;;;0.10;99.90;;;;;;1949590;72;21574;-73
2021/01/10 09:14:18;;;;;;;11.18;6.87;;;0.10;99.90;;;;;;1949668;72;21432;-81
2021/01/10 09:16:46;;;;;;;13.03;7.12;;;0.00;99.90;;;;;;1951640;73;21559;-74
2021/01/10 09:19:12;;;;;;;11.18;6.65;;;0.10;99.90;;;;;;1945642;73;21075;-76
2021/01/10 09:21:38;;;;;;;14.15;6.60;;;0.10;99.90;;;;;;1945027;73;21144;-72
2021/01/10 09:24:05;;;;;;;10.63;6.05;;;0.20;99.90;;;;;;1950655;73;21129;-72
2021/01/10 09:26:31;;;;;;;14.15;5.20;;;0.40;99.90;;;;;;1952609;73;21080;-72
2021/01/10 09:28:58;;;;;;;13.60;6.42;;;0.50;99.90;;;;;;1952603;73;21141;-73
2021/01/10 09:31:24;;;;;;;11.08;5.80;;;0.60;99.90;;;;;;1951472;73;21102;-72
2021/01/10 09:33:50;;;;;;;10.70;6.03;;;0.70;99.90;;;;;;1953480;73;21063;-73
2021/01/10 09:36:16;;;;;;;13.62;7.03;;;0.90;99.90;;;;;;1951641;72;21054;-73
2021/01/10 09:38:42;;;;;;;15.70;5.85;;;0.90;99.90;;;;;;1947583;73;21044;-74
2021/01/10 09:41:08;;;;;;;10.00;5.58;;;1.10;99.90;;;;;;1943175;73;21055;-73
2021/01/10 09:43:34;;;;;;;10.78;5.83;;;1.20;99.90;;;;;;1952574;73;21168;-72
2021/01/10 09:46:00;;;;;;;12.40;6.17;;;1.30;99.90;;;;;;1948830;73;21079;-75
2021/01/10 09:48:27;;;;;;;9.75;6.25;;;1.60;99.90;;;;;;1953560;73;21152;-73
2021/01/10 09:50:53;;;;;;;10.55;5.80;;;2.00;99.90;;;;;;1951825;72;21568;-73
2021/01/10 09:53:19;;;;;;;10.82;6.03;;;2.30;99.90;;;;;;1948942;73;21471;-73
2021/01/10 09:55:45;;;;;;;7.97;5.20;;;2.30;99.90;;;;;;1946925;73;21555;-74
2021/01/10 09:58:11;;;;;;;7.25;4.87;;;2.40;99.90;;;;;;1948986;73;21069;-75
2021/01/10 10:00:37;;;;;;;8.00;5.03;;;2.40;99.90;;;;;;1950907;73;21140;-74
2021/01/10 10:03:04;;;;;;;14.55;5.10;;;2.40;99.90;;;;;;1945128;73;21110;-74
2021/01/10 10:05:30;;;;;;;6.42;4.25;;;2.70;99.90;;;;;;1943336;73;21145;-76
2021/01/10 10:07:56;;;;;;;22.20;5.25;;;2.80;99.90;;;;;;1950145;73;21124;-74
2021/01/10 10:10:22;;;;;;;5.95;4.08;;;3.20;99.90;;;;;;1953621;73;21050;-74
2021/01/10 10:12:48;;;;;;;5.97;4.17;;;3.40;99.90;;;;;;1946890;73;21057;-74
2021/01/10 10:15:14;;;;;;;7.20;4.40;;;3.40;99.90;;;;;;1949046;73;21106;-73
2021/01/10 10:17:40;;;;;;;5.55;3.70;;;3.30;99.90;;;;;;1946224;72;21039;-74
2021/01/10 10:20:07;;;;;;;10.58;2.30;;;2.70;99.90;;;;;;1949807;73;21058;-74
2021/01/10 10:22:33;;;;;;;4.25;2.75;;;2.50;99.90;;;;;;1953522;73;21498;-74
2021/01/10 10:24:59;;;;;;;4.37;2.30;;;2.30;99.90;;;;;;1953796;73;21459;-74
2021/01/10 10:27:25;;;;;;;2.80;2.22;;;2.50;99.90;;;;;;1953518;73;21063;-74
2021/01/10 10:29:51;;;;;;;4.97;2.80;;;2.30;99.90;;;;;;1957660;72;21054;-74
2021/01/10 10:32:17;;;;;;;2.70;2.30;;;2.60;99.90;;;;;;1947107;73;21156;-74
2021/01/10 10:34:44;;;;;;;4.58;2.92;;;3.00;99.90;;;;;;1951779;73;21063;-75
2021/01/10 10:37:10;;;;;;;3.08;2.37;;;2.80;99.90;;;;;;1953459;73;21131;-74
2021/01/10 10:39:36;;;;;;;3.70;2.40;;;2.60;99.90;;;;;;1949723;73;21035;-76
2021/01/10 10:42:02;;;;;;;4.08;2.67;;;2.20;99.90;;;;;;1948583;73;21071;-74
2021/01/10 10:44:28;;;;;;;3.67;3.20;;;1.90;99.90;;;;;;1944968;73;21067;-75
2021/01/10 10:46:54;;;;;;;4.25;2.77;;;1.80;99.90;;;;;;1946967;73;21067;-75
2021/01/10 10:49:20;;;;;;;5.00;3.58;;;1.70;99.90;;;;;;1953569;73;21074;-75
2021/01/10 10:51:46;;;;;;;5.20;3.08;;;1.80;99.90;;;;;;1945651;73;21067;-75
2021/01/10 10:54:14;;;;;;;4.30;3.00;;;1.90;99.90;;;;;;1950630;73;21160;-73
2021/01/10 10:56:40;;;;;;;9.53;3.62;;;2.00;99.90;;;;;;1945736;73;21156;-75
2021/01/10 10:59:06;;;;;;;4.28;3.12;;;2.00;99.90;;;;;;1953433;73;21043;-75
2021/01/10 11:01:32;;;;;;;3.12;2.70;;;1.80;99.90;;;;;;1943227;73;21063;-75
2021/01/10 11:03:58;;;;;;;5.53;3.37;;;1.80;99.90;;;;;;1950923;73;21132;-75
2021/01/10 11:06:24;;;;;;;6.90;3.15;;;2.10;99.90;;;;;;1952285;73;21110;-75
2021/01/10 11:08:50;;;;;;;6.90;3.50;;;2.20;99.90;;;;;;1949076;73;21144;-74
2021/01/10 11:11:17;;;;;;;5.42;3.52;;;2.20;99.90;;;;;;1951429;73;21494;-74
2021/01/10 11:13:43;;;;;;;8.08;3.08;;;2.10;99.90;;;;;;1945739;72;21589;-74
2021/01/10 11:16:09;;;;;;;6.55;3.42;;;1.80;99.90;;;;;;1951140;73;21072;-74
2021/01/10 11:18:35;;;;;;;6.15;3.50;;;1.60;99.90;;;;;;1944504;73;21039;-75
2021/01/10 11:21:01;;;;;;;6.53;3.55;;;1.80;99.90;;;;;;1946558;72;21067;-74
2021/01/10 11:23:27;;;;;;;6.37;3.47;;;1.70;99.90;;;;;;1947707;73;21070;-75
2021/01/10 11:25:53;;;;;;;5.05;3.52;;;1.60;99.90;;;;;;1946604;73;21067;-75
2021/01/10 11:28:19;;;;;;;4.25;3.10;;;1.80;99.90;;;;;;1946834;73;21078;-75
2021/01/10 11:30:46;;;;;;;4.50;3.27;;;2.00;99.90;;;;;;1950998;72;21074;-75
2021/01/10 11:33:12;;;;;;;5.78;3.37;;;2.10;99.90;;;;;;1953055;73;21478;-75
2021/01/10 11:35:38;;;;;;;5.58;3.45;;;2.10;99.90;;;;;;1953176;73;21466;-75
2021/01/10 11:38:04;;;;;;;6.22;3.35;;;2.20;99.90;;;;;;1952872;73;21514;-75
2021/01/10 11:40:30;;;;;;;5.12;3.50;;;2.70;99.90;;;;;;1950885;73;21031;-74
2021/01/10 11:42:56;;;;;;;8.43;3.58;;;3.30;99.90;;;;;;1950571;72;21062;-74
2021/01/10 11:45:22;;;;;;;6.08;3.20;;;3.20;99.90;;;;;;1944463;73;21067;-75
2021/01/10 11:47:48;;;;;;;5.67;3.58;;;3.40;99.90;;;;;;1958066;73;21121;-73
2021/01/10 11:50:14;;;;;;;5.20;3.20;;;3.30;99.90;;;;;;1947799;73;21110;-74
2021/01/10 11:52:41;;;;;;;6.30;3.55;;;3.50;99.90;;;;;;1950703;72;21128;-74
2021/01/10 11:55:07;;;;;;;9.08;5.20;;;3.90;99.90;;;;;;1945589;73;21128;-74
2021/01/10 11:57:33;;;;;;;5.17;3.20;;;4.20;99.90;;;;;;1945433;73;21479;-74
2021/01/10 11:59:59;;;;;;;4.50;3.17;;;4.00;99.90;;;;;;1952926;73;21536;-75
2021/01/10 12:02:25;;;;;;;5.17;3.70;;;3.50;99.90;;;;;;1950299;73;21048;-74
2021/01/10 12:04:51;;;;;;;9.60;3.87;;;3.40;99.90;;;;;;1942913;73;21063;-74
2021/01/10 12:07:18;;;;;;;5.45;3.37;;;3.20;99.90;;;;;;1946160;73;21124;-75
2021/01/10 12:09:45;;;;;;;4.15;2.98;;;3.00;99.90;;;;;;1946624;72;21133;-72
2021/01/10 12:12:11;;;;;;;3.47;2.87;;;2.70;99.90;;;;;;1953071;73;21544;-74
2021/01/10 12:14:37;;;;;;;5.30;3.30;;;2.70;99.90;;;;;;1945644;72;21555;-73
2021/01/10 12:17:03;;;;;;;4.97;3.17;;;2.80;99.90;;;;;;1942806;73;21514;-74
2021/01/10 12:19:29;;;;;;;5.97;3.55;;;3.00;99.90;;;;;;1952320;73;21055;-74
2021/01/10 12:21:55;;;;;;;5.55;3.50;;;3.00;99.90;;;;;;1953264;73;21140;-74
2021/01/10 12:24:22;;;;;;;7.22;3.77;;;3.50;99.90;;;;;;1947651;73;21489;-74
2021/01/10 12:26:48;;;;;;;8.93;4.17;;;3.20;99.90;;;;;;1942769;73;21583;-73
2021/01/10 12:29:14;;;;;;;8.28;4.05;;;2.50;99.90;;;;;;1942783;73;21064;-74
2021/01/10 12:31:40;;;;;;;5.05;3.17;;;2.30;99.90;;;;;;1943698;73;21004;-75
2021/01/10 12:34:06;;;;;;;5.92;3.80;;;2.20;99.90;;;;;;1947166;73;21067;-75
2021/01/10 12:36:32;;;;;;;9.75;3.58;;;2.40;99.90;;;;;;1942797;73;21067;-74
2021/01/10 12:38:58;;;;;;;5.37;3.92;;;2.50;99.90;;;;;;1944666;73;21059;-74